Time;durP1;ratioP1;P1;durP2;ratioP2;P2;SDS_P1;SDS_P2;PMS_P1;PMS_P2;Temp;Humidity;BMP_temperature;BMP_pressure;BME280_temperature;BME280_humidity;BME280_pressure;Samples;Min_cycle;Max_cycle;Signal;HPM_P1;HPM_P2
2023/03/31 00:02:20;;;;;;;6.20;2.47;;;;;;;;;;4992446;28;20499;-68
2023/03/31 00:04:51;;;;;;;3.77;2.30;;;;;;;;;;4993585;28;20468;-67
2023/03/31 00:07:23;;;;;;;8.93;2.70;;;;;;;;;;4993350;28;20906;-68
2023/03/31 00:09:53;;;;;;;6.63;2.30;;;;;;;;;;4997261;28;20456;-68
2023/03/31 00:12:21;;;;;;;4.10;2.77;;;;;;;;;;4993920;28;20450;-68
2023/03/31 00:14:49;;;;;;;7.83;2.57;;;;;;;;;;4993410;28;20457;-68
2023/03/31 00:17:17;;;;;;;7.77;2.70;;;;;;;;;;4995673;28;20452;-68
2023/03/31 00:19:48;;;;;;;6.70;2.80;;;;;;;;;;4996989;28;20452;-67
2023/03/31 00:22:17;;;;;;;3.00;2.20;;;;;;;;;;4996962;28;20476;-68
2023/03/31 00:24:44;;;;;;;5.47;2.97;;;;;;;;;;4996858;28;20444;-68
2023/03/31 00:27:12;;;;;;;5.17;2.57;;;;;;;;;;4996386;28;20440;-68
2023/03/31 00:29:40;;;;;;;4.80;2.80;;;;;;;;;;4996446;28;20499;-68
2023/03/31 00:32:09;;;;;;;4.47;2.60;;;;;;;;;;4996293;28;20452;-68
2023/03/31 00:34:37;;;;;;;4.60;2.47;;;;;;;;;;4996109;28;20496;-68
2023/03/31 00:37:04;;;;;;;5.40;2.83;;;;;;;;;;4997245;28;20434;-68
2023/03/31 00:39:34;;;;;;;5.30;2.80;;;;;;;;;;4996612;28;20805;-67
2023/03/31 00:42:03;;;;;;;6.90;3.47;;;;;;;;;;4996436;28;20832;-68
2023/03/31 00:44:33;;;;;;;5.60;2.90;;;;;;;;;;4996275;28;20453;-67
2023/03/31 00:47:03;;;;;;;5.53;2.70;;;;;;;;;;4996440;28;20444;-68
2023/03/31 00:49:33;;;;;;;7.40;3.00;;;;;;;;;;4996442;28;20450;-67
2023/03/31 00:52:02;;;;;;;6.80;3.50;;;;;;;;;;4996566;28;20448;-68
2023/03/31 00:54:32;;;;;;;7.70;3.20;;;;;;;;;;5000133;28;20439;-68
2023/03/31 00:57:02;;;;;;;5.23;2.80;;;;;;;;;;5015894;28;20439;-67
2023/03/31 00:59:31;;;;;;;9.50;3.10;;;;;;;;;;5015814;28;20444;-68
2023/03/31 01:02:01;;;;;;;6.90;2.97;;;;;;;;;;5011092;28;20477;-68
2023/03/31 01:04:29;;;;;;;5.40;3.00;;;;;;;;;;4996458;28;20453;-67
2023/03/31 01:07:01;;;;;;;9.60;3.80;;;;;;;;;;4996139;28;20454;-68
2023/03/31 01:09:33;;;;;;;7.93;2.50;;;;;;;;;;5002610;28;20523;-67
2023/03/31 01:12:01;;;;;;;4.20;2.67;;;;;;;;;;5015538;28;20476;-68
2023/03/31 01:14:28;;;;;;;11.27;2.97;;;;;;;;;;5015545;28;20455;-67
2023/03/31 01:16:56;;;;;;;9.17;3.07;;;;;;;;;;5015181;28;20922;-68
2023/03/31 01:19:26;;;;;;;7.77;2.90;;;;;;;;;;5015093;28;20449;-67
2023/03/31 01:22:11;;;;;;;11.53;2.87;;;;;;;;;;5015337;28;20495;-67
2023/03/31 01:24:50;;;;;;;9.80;3.80;;;;;;;;;;5015263;28;20930;-68
2023/03/31 01:27:26;;;;;;;9.30;4.00;;;;;;;;;;5015505;28;20436;-68
2023/03/31 01:30:12;;;;;;;2.90;2.27;;;;;;;;;;5015775;28;20451;-68
2023/03/31 01:33:03;;;;;;;7.93;2.47;;;;;;;;;;5015176;28;20441;-68
2023/03/31 01:35:48;;;;;;;7.60;2.70;;;;;;;;;;5000140;28;21002;-68
2023/03/31 01:38:27;;;;;;;6.40;2.37;;;;;;;;;;4985127;28;20456;-68
2023/03/31 01:41:07;;;;;;;8.50;3.13;;;;;;;;;;5015110;28;20536;-67
2023/03/31 01:43:37;;;;;;;5.90;2.57;;;;;;;;;;5014670;28;20446;-68
2023/03/31 01:46:09;;;;;;;9.37;2.63;;;;;;;;;;5015818;28;20799;-68
2023/03/31 01:48:40;;;;;;;7.90;2.53;;;;;;;;;;5015303;28;20435;-68
2023/03/31 01:51:11;;;;;;;8.33;2.60;;;;;;;;;;5015144;28;20484;-68
2023/03/31 01:53:44;;;;;;;7.63;2.93;;;;;;;;;;5014988;28;20440;-68
2023/03/31 01:56:16;;;;;;;5.13;3.00;;;;;;;;;;5014576;28;20426;-68
2023/03/31 01:58:44;;;;;;;5.30;2.47;;;;;;;;;;5014945;28;20463;-68
2023/03/31 02:01:15;;;;;;;4.73;2.80;;;;;;;;;;5014824;28;20484;-68
2023/03/31 02:03:45;;;;;;;6.00;2.90;;;;;;;;;;4999343;28;20475;-68
2023/03/31 02:06:15;;;;;;;8.13;2.70;;;;;;;;;;4995094;28;20440;-68
2023/03/31 02:08:44;;;;;;;5.13;2.33;;;;;;;;;;4996158;28;20437;-69
2023/03/31 02:11:14;;;;;;;3.87;2.57;;;;;;;;;;5014438;28;20801;-68
2023/03/31 02:13:43;;;;;;;9.20;3.00;;;;;;;;;;5014453;28;20440;-68
2023/03/31 02:16:15;;;;;;;5.10;2.80;;;;;;;;;;5014401;28;20451;-69
2023/03/31 02:18:43;;;;;;;5.27;2.80;;;;;;;;;;5014710;28;20425;-68
2023/03/31 02:21:12;;;;;;;6.00;2.20;;;;;;;;;;5014315;28;20509;-68
2023/03/31 02:23:40;;;;;;;4.13;2.63;;;;;;;;;;5013926;28;20449;-68
2023/03/31 02:26:10;;;;;;;8.03;3.50;;;;;;;;;;5013963;28;20441;-68
2023/03/31 02:28:39;;;;;;;4.57;2.30;;;;;;;;;;5014025;28;20508;-68
2023/03/31 02:31:10;;;;;;;10.03;3.50;;;;;;;;;;5014718;28;20799;-68
2023/03/31 02:33:37;;;;;;;9.97;2.53;;;;;;;;;;5014612;28;20442;-68
2023/03/31 02:36:06;;;;;;;5.70;3.50;;;;;;;;;;5014263;28;20488;-68
2023/03/31 02:38:36;;;;;;;7.13;3.10;;;;;;;;;;5014038;28;20778;-68
2023/03/31 02:41:03;;;;;;;7.23;2.70;;;;;;;;;;5014366;28;20435;-68
2023/03/31 02:43:30;;;;;;;6.73;2.30;;;;;;;;;;5014209;28;20444;-68
2023/03/31 02:45:59;;;;;;;6.27;2.60;;;;;;;;;;5014060;28;20445;-68
2023/03/31 02:48:28;;;;;;;6.80;2.53;;;;;;;;;;5013564;28;20456;-68
2023/03/31 02:51:06;;;;;;;5.23;2.50;;;;;;;;;;5013642;28;20443;-69
2023/03/31 02:53:39;;;;;;;6.10;2.67;;;;;;;;;;5014030;28;20473;-68
2023/03/31 02:56:12;;;;;;;10.50;2.27;;;;;;;;;;5013630;28;20431;-68
2023/03/31 02:58:47;;;;;;;7.20;2.80;;;;;;;;;;5014223;28;20437;-68
2023/03/31 03:01:26;;;;;;;4.77;2.70;;;;;;;;;;5013770;28;20439;-68
2023/03/31 03:03:58;;;;;;;7.07;2.83;;;;;;;;;;4997123;28;20465;-68
2023/03/31 03:06:32;;;;;;;4.20;2.60;;;;;;;;;;4994676;28;20504;-68
2023/03/31 03:09:05;;;;;;;11.63;2.93;;;;;;;;;;4997264;28;20444;-68
2023/03/31 03:11:35;;;;;;;4.67;2.70;;;;;;;;;;4994546;28;20448;-68
2023/03/31 03:14:06;;;;;;;5.53;3.40;;;;;;;;;;4993964;28;20878;-68
2023/03/31 03:16:38;;;;;;;6.60;2.97;;;;;;;;;;4994553;28;20492;-68
2023/03/31 03:19:06;;;;;;;7.17;3.00;;;;;;;;;;4994379;28;20479;-68
2023/03/31 03:21:34;;;;;;;7.00;3.57;;;;;;;;;;4993623;28;20491;-68
2023/03/31 03:24:01;;;;;;;7.30;3.13;;;;;;;;;;4994017;28;20456;-68
2023/03/31 03:26:28;;;;;;;5.30;3.60;;;;;;;;;;4993949;28;20450;-68
2023/03/31 03:28:57;;;;;;;8.47;3.63;;;;;;;;;;4993754;28;20443;-68
2023/03/31 03:31:24;;;;;;;5.23;3.20;;;;;;;;;;4993670;28;20954;-68
2023/03/31 03:33:53;;;;;;;5.63;3.40;;;;;;;;;;4993427;28;20449;-69
2023/03/31 03:36:21;;;;;;;10.30;3.30;;;;;;;;;;4994078;28;20478;-67
2023/03/31 03:38:49;;;;;;;8.23;3.43;;;;;;;;;;4994687;28;20472;-66
2023/03/31 03:41:17;;;;;;;7.00;3.27;;;;;;;;;;4993659;28;20528;-67
2023/03/31 03:43:44;;;;;;;9.30;4.60;;;;;;;;;;4993757;28;20448;-68
2023/03/31 03:46:11;;;;;;;7.13;4.00;;;;;;;;;;4993627;28;20450;-68
2023/03/31 03:48:38;;;;;;;14.60;4.33;;;;;;;;;;4993392;28;20459;-68
2023/03/31 03:51:07;;;;;;;8.30;4.40;;;;;;;;;;4994521;28;20443;-68
2023/03/31 03:53:34;;;;;;;11.93;4.13;;;;;;;;;;5012500;28;20464;-68
2023/03/31 03:56:01;;;;;;;6.90;4.13;;;;;;;;;;5016305;28;20447;-68
2023/03/31 03:58:28;;;;;;;7.07;4.03;;;;;;;;;;5016718;28;20444;-68
2023/03/31 04:00:56;;;;;;;16.33;4.23;;;;;;;;;;5016730;28;20448;-68
2023/03/31 04:03:23;;;;;;;13.33;5.10;;;;;;;;;;5016676;28;20504;-68
2023/03/31 04:05:51;;;;;;;13.87;5.30;;;;;;;;;;5016582;28;20463;-68
2023/03/31 04:08:20;;;;;;;13.10;5.20;;;;;;;;;;5016496;28;20445;-67
2023/03/31 04:10:48;;;;;;;11.40;5.20;;;;;;;;;;5016205;28;20449;-67
2023/03/31 04:13:15;;;;;;;12.30;6.07;;;;;;;;;;5016253;28;20461;-68
2023/03/31 04:15:42;;;;;;;10.03;5.53;;;;;;;;;;5016198;28;20963;-67
2023/03/31 04:18:17;;;;;;;7.50;4.93;;;;;;;;;;5016370;28;20487;-66
2023/03/31 04:20:44;;;;;;;10.53;5.17;;;;;;;;;;5016304;28;20460;-66
2023/03/31 04:23:13;;;;;;;9.33;5.70;;;;;;;;;;5016345;28;20818;-66
2023/03/31 04:25:45;;;;;;;12.23;5.53;;;;;;;;;;5016733;28;20448;-67
2023/03/31 04:28:13;;;;;;;14.37;5.57;;;;;;;;;;5016505;28;20518;-67
2023/03/31 04:30:40;;;;;;;13.10;5.67;;;;;;;;;;5016045;28;20480;-67
2023/03/31 04:33:08;;;;;;;19.77;5.93;;;;;;;;;;5016405;28;20443;-66
2023/03/31 04:35:48;;;;;;;6.70;5.13;;;;;;;;;;5015847;28;20600;-67
2023/03/31 04:38:17;;;;;;;9.30;5.00;;;;;;;;;;5016110;28;20444;-67
2023/03/31 04:40:46;;;;;;;26.77;13.10;;;;;;;;;;5016078;28;20827;-67
2023/03/31 04:43:13;;;;;;;18.77;5.90;;;;;;;;;;5016327;28;20482;-66
2023/03/31 04:45:41;;;;;;;12.27;6.37;;;;;;;;;;5015881;28;20432;-70
2023/03/31 04:48:08;;;;;;;9.83;4.90;;;;;;;;;;5015645;28;20454;-65
2023/03/31 04:50:35;;;;;;;17.27;5.27;;;;;;;;;;5015925;28;20793;-67
2023/03/31 04:53:02;;;;;;;12.60;5.97;;;;;;;;;;5015833;28;20451;-66
2023/03/31 04:55:30;;;;;;;14.00;5.23;;;;;;;;;;5015716;28;20449;-66
2023/03/31 04:57:58;;;;;;;8.90;5.03;;;;;;;;;;5015332;28;20459;-67
2023/03/31 05:00:27;;;;;;;16.50;5.40;;;;;;;;;;5015742;28;20456;-67
2023/03/31 05:02:54;;;;;;;24.90;5.97;;;;;;;;;;5015254;28;20480;-67
2023/03/31 05:05:22;;;;;;;11.83;5.37;;;;;;;;;;5015700;28;20454;-67
2023/03/31 05:07:49;;;;;;;10.50;5.20;;;;;;;;;;5015648;28;20462;-67
2023/03/31 05:10:16;;;;;;;8.50;5.43;;;;;;;;;;5015485;28;20459;-67
2023/03/31 05:12:43;;;;;;;10.00;6.37;;;;;;;;;;5015613;28;20453;-67
2023/03/31 05:15:12;;;;;;;11.70;6.03;;;;;;;;;;5015352;28;20452;-67
2023/03/31 05:17:39;;;;;;;14.17;6.60;;;;;;;;;;5015371;28;20445;-67
2023/03/31 05:20:08;;;;;;;15.13;6.00;;;;;;;;;;5015527;28;20909;-67
2023/03/31 05:22:36;;;;;;;14.13;5.97;;;;;;;;;;5014910;28;20488;-67
2023/03/31 05:25:04;;;;;;;11.40;6.40;;;;;;;;;;5015023;28;20968;-67
2023/03/31 05:27:31;;;;;;;13.77;5.70;;;;;;;;;;5015178;28;20450;-67
2023/03/31 05:29:58;;;;;;;10.13;5.17;;;;;;;;;;5015183;28;20449;-67
2023/03/31 05:32:27;;;;;;;7.83;4.90;;;;;;;;;;5015075;28;20457;-67
2023/03/31 05:34:56;;;;;;;12.03;5.10;;;;;;;;;;5015125;28;20799;-67
2023/03/31 05:37:24;;;;;;;9.37;6.10;;;;;;;;;;5014990;28;20444;-67
2023/03/31 05:39:52;;;;;;;10.40;5.40;;;;;;;;;;5014726;28;20457;-67
2023/03/31 05:42:19;;;;;;;10.00;5.83;;;;;;;;;;5014845;28;20489;-67
2023/03/31 05:44:47;;;;;;;19.20;7.07;;;;;;;;;;5014919;28;20527;-66
2023/03/31 05:47:14;;;;;;;13.50;5.33;;;;;;;;;;5014883;28;20447;-66
2023/03/31 05:49:43;;;;;;;10.80;5.07;;;;;;;;;;5014523;28;20535;-67
2023/03/31 05:52:11;;;;;;;10.70;4.40;;;;;;;;;;5014975;28;20447;-67
2023/03/31 05:54:38;;;;;;;7.13;4.40;;;;;;;;;;5014874;28;20801;-66
2023/03/31 05:57:05;;;;;;;10.30;4.67;;;;;;;;;;5014874;28;20458;-66
2023/03/31 05:59:34;;;;;;;5.93;3.43;;;;;;;;;;5014774;28;20927;-66
2023/03/31 06:02:01;;;;;;;7.47;3.10;;;;;;;;;;5014237;28;20472;-67
2023/03/31 06:04:30;;;;;;;11.17;4.00;;;;;;;;;;5014922;28;20471;-66
2023/03/31 06:06:58;;;;;;;12.13;3.90;;;;;;;;;;5014164;28;20479;-67
2023/03/31 06:09:27;;;;;;;10.73;3.53;;;;;;;;;;5014269;28;20487;-67
2023/03/31 06:11:54;;;;;;;6.70;3.17;;;;;;;;;;5014507;28;20449;-67
2023/03/31 06:14:21;;;;;;;5.10;2.97;;;;;;;;;;5013415;28;20453;-67
2023/03/31 06:16:48;;;;;;;9.07;3.20;;;;;;;;;;5014346;28;20477;-68
2023/03/31 06:19:16;;;;;;;9.57;3.40;;;;;;;;;;5014422;28;20443;-67
2023/03/31 06:21:43;;;;;;;11.73;3.60;;;;;;;;;;5014544;28;20796;-67
2023/03/31 06:24:12;;;;;;;7.80;3.17;;;;;;;;;;5014251;28;20514;-66
2023/03/31 06:26:39;;;;;;;8.77;3.40;;;;;;;;;;5013869;28;20443;-67
2023/03/31 06:29:06;;;;;;;6.70;3.10;;;;;;;;;;5014345;28;20796;-67
2023/03/31 06:31:33;;;;;;;10.83;3.33;;;;;;;;;;5014297;28;20497;-67
2023/03/31 06:34:00;;;;;;;9.03;3.40;;;;;;;;;;5013685;28;20453;-67
2023/03/31 06:36:28;;;;;;;12.20;2.60;;;;;;;;;;5013617;28;20956;-67
2023/03/31 06:38:55;;;;;;;5.80;2.73;;;;;;;;;;5014063;28;20444;-67
2023/03/31 06:41:23;;;;;;;4.73;2.90;;;;;;;;;;5014091;28;20447;-67
2023/03/31 06:43:51;;;;;;;8.40;2.70;;;;;;;;;;5013836;28;20501;-66
2023/03/31 06:46:18;;;;;;;10.67;3.20;;;;;;;;;;5013935;28;20442;-67
2023/03/31 06:48:45;;;;;;;5.30;3.17;;;;;;;;;;5013806;28;20473;-67
2023/03/31 06:51:12;;;;;;;6.77;2.67;;;;;;;;;;5013883;28;20439;-66
2023/03/31 06:53:40;;;;;;;3.43;2.90;;;;;;;;;;5013423;28;20454;-67
2023/03/31 06:56:07;;;;;;;9.77;2.90;;;;;;;;;;5014026;28;20435;-67
2023/03/31 06:58:36;;;;;;;7.70;2.50;;;;;;;;;;5013834;28;20551;-67
2023/03/31 07:01:04;;;;;;;6.53;2.50;;;;;;;;;;5013478;28;20446;-66
2023/03/31 07:03:32;;;;;;;9.50;3.33;;;;;;;;;;5013432;28;20481;-67
2023/03/31 07:05:59;;;;;;;17.30;3.40;;;;;;;;;;5014066;28;20443;-67
2023/03/31 07:08:26;;;;;;;9.00;3.13;;;;;;;;;;5013521;28;20443;-67
2023/03/31 07:10:56;;;;;;;8.93;2.80;;;;;;;;;;5013656;28;20447;-66
2023/03/31 07:13:24;;;;;;;5.63;2.40;;;;;;;;;;5013796;28;20483;-67
2023/03/31 07:15:53;;;;;;;6.03;2.60;;;;;;;;;;5013662;28;20471;-67
2023/03/31 07:18:20;;;;;;;6.80;2.30;;;;;;;;;;5013824;28;20456;-67
2023/03/31 07:20:49;;;;;;;7.97;2.33;;;;;;;;;;5013989;28;20448;-67
2023/03/31 07:23:16;;;;;;;7.00;2.20;;;;;;;;;;5013682;28;20474;-67
2023/03/31 07:25:44;;;;;;;5.70;2.60;;;;;;;;;;5015621;28;20445;-67
2023/03/31 07:28:11;;;;;;;7.13;2.70;;;;;;;;;;5017940;28;20431;-67
2023/03/31 07:30:40;;;;;;;4.10;2.47;;;;;;;;;;5017440;28;20458;-67
2023/03/31 07:33:09;;;;;;;4.37;2.03;;;;;;;;;;5017361;28;20447;-66
2023/03/31 07:35:38;;;;;;;5.20;2.30;;;;;;;;;;5017566;28;21078;-67
2023/03/31 07:38:05;;;;;;;6.70;2.17;;;;;;;;;;5017755;28;20463;-66
2023/03/31 07:40:32;;;;;;;5.00;2.27;;;;;;;;;;5016931;28;20454;-66
2023/03/31 07:43:00;;;;;;;4.77;2.70;;;;;;;;;;5017278;28;20489;-66
2023/03/31 07:45:27;;;;;;;6.20;3.07;;;;;;;;;;5017265;28;20455;-66
2023/03/31 07:47:55;;;;;;;2.20;2.00;;;;;;;;;;5017181;28;20435;-66
2023/03/31 07:50:24;;;;;;;3.50;2.20;;;;;;;;;;5017888;28;20448;-67
2023/03/31 07:52:51;;;;;;;4.07;2.50;;;;;;;;;;5017060;28;20535;-67
2023/03/31 07:55:19;;;;;;;6.23;3.10;;;;;;;;;;5017039;28;20507;-67
2023/03/31 07:57:47;;;;;;;4.60;2.40;;;;;;;;;;5017083;28;20446;-67
2023/03/31 08:00:15;;;;;;;2.50;2.30;;;;;;;;;;5016676;28;20446;-66
2023/03/31 08:02:42;;;;;;;4.23;2.50;;;;;;;;;;5016507;28;21005;-67
2023/03/31 08:05:11;;;;;;;6.47;2.40;;;;;;;;;;5017328;28;20459;-66
2023/03/31 08:07:40;;;;;;;5.43;2.57;;;;;;;;;;5016459;28;20933;-67
2023/03/31 08:10:09;;;;;;;8.70;2.60;;;;;;;;;;5016806;28;20445;-66
2023/03/31 08:12:36;;;;;;;8.83;2.70;;;;;;;;;;5016791;28;20451;-67
2023/03/31 08:15:04;;;;;;;4.80;2.40;;;;;;;;;;5015778;28;20441;-67
2023/03/31 08:17:31;;;;;;;3.10;2.47;;;;;;;;;;5016436;28;20528;-67
2023/03/31 08:19:58;;;;;;;7.70;3.60;;;;;;;;;;5016534;28;20817;-67
2023/03/31 08:22:25;;;;;;;7.70;2.80;;;;;;;;;;5016595;28;20790;-67
2023/03/31 08:24:54;;;;;;;7.17;3.10;;;;;;;;;;5016378;28;20976;-68
2023/03/31 08:27:22;;;;;;;7.20;2.50;;;;;;;;;;5016371;28;20443;-67
2023/03/31 08:29:49;;;;;;;5.30;2.73;;;;;;;;;;5016355;28;20925;-67
2023/03/31 08:32:16;;;;;;;9.20;3.53;;;;;;;;;;5016534;28;20454;-67
2023/03/31 08:34:44;;;;;;;9.43;3.10;;;;;;;;;;5015848;28;20479;-67
2023/03/31 08:37:12;;;;;;;6.90;2.33;;;;;;;;;;5015456;28;20453;-67
2023/03/31 08:39:39;;;;;;;7.30;2.77;;;;;;;;;;5016240;28;20470;-67
2023/03/31 08:42:11;;;;;;;5.33;3.37;;;;;;;;;;5016480;28;20540;-67
2023/03/31 08:44:40;;;;;;;6.80;2.07;;;;;;;;;;5015737;28;20463;-66
2023/03/31 08:47:13;;;;;;;7.20;2.17;;;;;;;;;;5016423;28;20450;-65
2023/03/31 08:49:42;;;;;;;4.17;2.60;;;;;;;;;;5015740;28;20447;-65
2023/03/31 08:52:13;;;;;;;4.37;2.30;;;;;;;;;;5015970;28;20440;-65
2023/03/31 08:54:43;;;;;;;4.67;2.23;;;;;;;;;;5016093;28;20462;-66
2023/03/31 08:57:15;;;;;;;4.10;2.30;;;;;;;;;;5016198;28;20440;-65
2023/03/31 08:59:44;;;;;;;5.30;2.17;;;;;;;;;;5015883;28;20437;-66
2023/03/31 09:02:17;;;;;;;2.70;2.03;;;;;;;;;;5015567;28;20454;-65
2023/03/31 09:04:50;;;;;;;3.50;2.70;;;;;;;;;;5016066;28;20493;-65
2023/03/31 09:07:20;;;;;;;5.53;2.30;;;;;;;;;;5015813;28;20424;-65
2023/03/31 09:09:53;;;;;;;3.73;2.30;;;;;;;;;;5015599;28;20433;-66
2023/03/31 09:12:23;;;;;;;3.50;2.20;;;;;;;;;;5016760;28;20427;-66
2023/03/31 09:14:53;;;;;;;3.33;3.03;;;;;;;;;;5015732;28;20521;-66
2023/03/31 09:17:22;;;;;;;4.03;2.47;;;;;;;;;;5015429;28;20528;-66
2023/03/31 09:19:51;;;;;;;4.13;2.77;;;;;;;;;;5015314;28;20455;-66
2023/03/31 09:22:20;;;;;;;5.17;2.37;;;;;;;;;;5015060;28;20527;-66
2023/03/31 09:24:53;;;;;;;4.70;2.30;;;;;;;;;;5015216;28;20477;-66
2023/03/31 09:27:24;;;;;;;8.90;3.63;;;;;;;;;;5015066;28;20425;-66
2023/03/31 09:29:53;;;;;;;3.80;2.60;;;;;;;;;;5015257;28;20526;-66
2023/03/31 09:32:21;;;;;;;3.30;2.30;;;;;;;;;;5015318;28;20441;-66
2023/03/31 09:34:51;;;;;;;3.63;2.37;;;;;;;;;;5014731;28;20571;-66
2023/03/31 09:37:18;;;;;;;5.40;2.60;;;;;;;;;;5015145;28;20474;-67
2023/03/31 09:39:45;;;;;;;4.77;2.30;;;;;;;;;;4997399;28;20445;-67
2023/03/31 09:42:13;;;;;;;5.50;3.07;;;;;;;;;;4995442;28;20503;-67
2023/03/31 09:44:43;;;;;;;4.50;2.23;;;;;;;;;;4994868;28;20476;-65
2023/03/31 09:47:13;;;;;;;36.27;2.90;;;;;;;;;;4995876;28;20539;-65
2023/03/31 09:49:42;;;;;;;6.40;3.53;;;;;;;;;;4995771;28;20553;-65
2023/03/31 09:52:13;;;;;;;8.23;4.20;;;;;;;;;;4994860;28;20454;-66
2023/03/31 09:54:42;;;;;;;6.03;2.90;;;;;;;;;;4994811;28;20448;-67
2023/03/31 09:57:14;;;;;;;5.80;2.40;;;;;;;;;;4995166;28;20443;-67
2023/03/31 09:59:44;;;;;;;5.07;2.70;;;;;;;;;;4995033;28;20801;-67
2023/03/31 10:02:25;;;;;;;3.53;2.17;;;;;;;;;;4995194;28;20433;-67
2023/03/31 10:04:53;;;;;;;6.50;2.77;;;;;;;;;;4995075;28;20497;-67
2023/03/31 10:07:21;;;;;;;4.60;2.10;;;;;;;;;;4994936;28;20444;-67
2023/03/31 10:09:49;;;;;;;8.33;3.07;;;;;;;;;;4994506;28;20440;-67
2023/03/31 10:12:19;;;;;;;7.20;3.30;;;;;;;;;;4995001;28;20813;-67
2023/03/31 10:14:48;;;;;;;4.33;2.50;;;;;;;;;;4994744;28;20540;-67
2023/03/31 10:17:17;;;;;;;3.83;2.57;;;;;;;;;;4995155;28;20449;-67
2023/03/31 10:19:48;;;;;;;7.00;2.50;;;;;;;;;;4994824;28;20474;-67
2023/03/31 10:22:16;;;;;;;5.77;2.60;;;;;;;;;;4995123;28;20437;-67
2023/03/31 10:24:45;;;;;;;5.67;3.10;;;;;;;;;;4994842;28;20522;-67
2023/03/31 10:27:17;;;;;;;3.30;2.60;;;;;;;;;;4994187;28;20507;-67
2023/03/31 10:29:45;;;;;;;5.57;3.07;;;;;;;;;;4994322;28;20437;-67
2023/03/31 10:32:18;;;;;;;8.80;3.60;;;;;;;;;;4994489;28;20443;-67
2023/03/31 10:34:46;;;;;;;5.23;2.73;;;;;;;;;;4994470;28;20530;-67
2023/03/31 10:37:16;;;;;;;4.83;2.90;;;;;;;;;;4994477;28;20442;-67
2023/03/31 10:39:44;;;;;;;4.33;2.80;;;;;;;;;;4993978;28;20448;-67
2023/03/31 10:42:12;;;;;;;5.00;2.77;;;;;;;;;;4994543;28;20443;-67
2023/03/31 10:44:39;;;;;;;7.30;2.70;;;;;;;;;;4994261;28;20990;-66
2023/03/31 10:47:16;;;;;;;3.93;3.20;;;;;;;;;;4993946;28;20487;-66
2023/03/31 10:49:45;;;;;;;4.27;2.83;;;;;;;;;;4994020;28;20436;-66
2023/03/31 10:52:17;;;;;;;18.03;8.63;;;;;;;;;;4994254;28;20461;-66
2023/03/31 10:54:48;;;;;;;6.17;4.50;;;;;;;;;;4994271;28;20450;-66
2023/03/31 10:57:16;;;;;;;5.27;3.13;;;;;;;;;;4994471;28;20817;-66
2023/03/31 10:59:51;;;;;;;8.10;2.90;;;;;;;;;;4993823;28;20450;-67
2023/03/31 11:02:39;;;;;;;6.30;3.23;;;;;;;;;;4994194;28;20486;-66
2023/03/31 11:05:13;;;;;;;7.60;3.33;;;;;;;;;;4994143;28;20483;-66
2023/03/31 11:07:44;;;;;;;8.30;3.20;;;;;;;;;;4994097;28;20447;-66
2023/03/31 11:10:21;;;;;;;6.00;2.83;;;;;;;;;;4993966;28;20971;-66
2023/03/31 11:12:53;;;;;;;8.83;4.73;;;;;;;;;;4994098;28;20613;-65
2023/03/31 11:15:23;;;;;;;6.90;3.10;;;;;;;;;;4993871;28;20976;-66
2023/03/31 11:17:59;;;;;;;5.13;3.20;;;;;;;;;;4994053;28;20530;-67
2023/03/31 11:20:32;;;;;;;4.03;2.80;;;;;;;;;;4993717;28;20457;-66
2023/03/31 11:23:03;;;;;;;10.03;3.60;;;;;;;;;;4994106;28;20504;-66
2023/03/31 11:25:35;;;;;;;6.30;3.13;;;;;;;;;;4993790;28;20478;-66
2023/03/31 11:28:20;;;;;;;7.07;3.03;;;;;;;;;;4994288;28;20427;-66
2023/03/31 11:30:51;;;;;;;4.80;2.73;;;;;;;;;;4984344;28;20454;-66
2023/03/31 11:33:27;;;;;;;7.57;3.00;;;;;;;;;;4993944;28;20439;-66
2023/03/31 11:36:04;;;;;;;9.70;2.90;;;;;;;;;;4993422;28;20482;-67
2023/03/31 11:38:35;;;;;;;6.10;2.80;;;;;;;;;;4993657;28;20438;-67
2023/03/31 11:41:05;;;;;;;9.03;3.00;;;;;;;;;;4994369;28;20733;-65
2023/03/31 11:43:35;;;;;;;4.77;2.23;;;;;;;;;;4993941;28;20781;-65
2023/03/31 11:46:04;;;;;;;6.73;3.20;;;;;;;;;;4993408;28;20577;-66
2023/03/31 11:48:36;;;;;;;5.90;2.90;;;;;;;;;;4993770;28;20449;-66
2023/03/31 11:51:05;;;;;;;2.90;2.53;;;;;;;;;;4993961;28;20832;-66
2023/03/31 11:53:34;;;;;;;5.40;3.40;;;;;;;;;;4993692;28;21032;-66
2023/03/31 11:56:03;;;;;;;7.87;2.70;;;;;;;;;;4993566;28;20975;-65
2023/03/31 11:58:32;;;;;;;7.33;3.27;;;;;;;;;;4993652;28;20451;-68
2023/03/31 12:01:02;;;;;;;6.50;2.73;;;;;;;;;;4993440;28;20457;-67
2023/03/31 12:03:32;;;;;;;12.03;2.63;;;;;;;;;;4993598;28;20447;-67
2023/03/31 12:06:02;;;;;;;3.47;2.60;;;;;;;;;;4993162;28;20999;-66
2023/03/31 12:08:35;;;;;;;6.83;3.40;;;;;;;;;;4994084;28;20533;-67
2023/03/31 12:11:05;;;;;;;5.73;2.77;;;;;;;;;;4993398;28;20494;-68
2023/03/31 12:13:36;;;;;;;5.43;2.70;;;;;;;;;;4996764;28;20475;-66
2023/03/31 12:16:06;;;;;;;4.00;2.70;;;;;;;;;;4997645;28;20443;-66
2023/03/31 12:18:37;;;;;;;6.80;2.97;;;;;;;;;;4997163;28;20431;-66
2023/03/31 12:21:06;;;;;;;5.97;2.57;;;;;;;;;;4996639;28;20427;-66
2023/03/31 12:23:38;;;;;;;7.77;2.70;;;;;;;;;;4997596;28;20446;-66
2023/03/31 12:26:07;;;;;;;8.47;3.17;;;;;;;;;;4996748;28;20995;-67
2023/03/31 12:28:36;;;;;;;10.53;3.10;;;;;;;;;;4997037;28;20456;-66
2023/03/31 12:31:04;;;;;;;8.40;2.90;;;;;;;;;;4997263;28;20454;-67
2023/03/31 12:33:32;;;;;;;5.27;2.40;;;;;;;;;;4996793;28;20481;-67
2023/03/31 12:36:08;;;;;;;10.03;3.30;;;;;;;;;;4996788;28;21062;-66
2023/03/31 12:38:42;;;;;;;5.93;2.50;;;;;;;;;;4997052;28;20831;-66
2023/03/31 12:41:13;;;;;;;6.07;2.40;;;;;;;;;;4996184;28;20444;-66
2023/03/31 12:43:52;;;;;;;8.40;2.50;;;;;;;;;;4996362;28;20432;-65
2023/03/31 12:46:29;;;;;;;8.10;2.23;;;;;;;;;;4996598;28;20840;-69
2023/03/31 12:49:05;;;;;;;13.73;2.53;;;;;;;;;;4996512;28;20443;-70
2023/03/31 12:51:40;;;;;;;4.73;1.97;;;;;;;;;;4996454;28;20788;-67
2023/03/31 12:54:20;;;;;;;6.50;3.70;;;;;;;;;;4996157;28;20902;-68
2023/03/31 12:57:03;;;;;;;6.10;2.30;;;;;;;;;;4996690;28;20432;-68
2023/03/31 12:59:33;;;;;;;7.33;2.87;;;;;;;;;;4996452;28;20453;-68
2023/03/31 13:02:20;;;;;;;8.33;2.23;;;;;;;;;;4999203;28;20435;-68
2023/03/31 13:04:48;;;;;;;7.20;2.70;;;;;;;;;;5015721;28;20486;-68
2023/03/31 13:07:35;;;;;;;6.13;2.27;;;;;;;;;;5014552;28;20461;-69
2023/03/31 13:10:25;;;;;;;5.07;2.30;;;;;;;;;;5015260;28;20429;-68
2023/03/31 13:12:58;;;;;;;5.70;2.30;;;;;;;;;;5015187;28;20532;-68
2023/03/31 13:15:26;;;;;;;4.00;2.30;;;;;;;;;;5015111;28;20434;-68
2023/03/31 13:17:56;;;;;;;7.53;3.70;;;;;;;;;;5015356;28;20451;-68
2023/03/31 13:20:36;;;;;;;7.80;2.03;;;;;;;;;;5015243;28;20478;-68
2023/03/31 13:23:18;;;;;;;4.80;2.43;;;;;;;;;;5015120;28;20441;-68
2023/03/31 13:25:48;;;;;;;9.93;2.50;;;;;;;;;;5014852;28;20470;-67
2023/03/31 13:28:25;;;;;;;8.43;3.20;;;;;;;;;;5015348;28;20443;-68
2023/03/31 13:31:02;;;;;;;8.40;2.90;;;;;;;;;;5015049;28;20481;-68
2023/03/31 13:33:32;;;;;;;7.27;2.77;;;;;;;;;;5015030;28;21022;-68
2023/03/31 13:36:17;;;;;;;10.00;2.93;;;;;;;;;;5012599;28;21005;-68
2023/03/31 13:38:50;;;;;;;7.83;3.00;;;;;;;;;;4985510;28;20521;-68
2023/03/31 13:41:27;;;;;;;6.60;2.53;;;;;;;;;;4995835;28;20442;-68
2023/03/31 13:44:00;;;;;;;5.63;2.10;;;;;;;;;;4995471;28;20439;-68
2023/03/31 13:46:35;;;;;;;8.53;2.57;;;;;;;;;;4995982;28;20510;-68
2023/03/31 13:49:08;;;;;;;11.83;2.60;;;;;;;;;;4995163;28;20433;-68
2023/03/31 13:51:39;;;;;;;7.53;2.87;;;;;;;;;;4995093;28;20435;-67
2023/03/31 13:54:36;;;;;;;7.53;2.87;;;;;;;;;;4994404;28;20450;-67
2023/03/31 13:57:18;;;;;;;9.57;3.50;;;;;;;;;;4994056;28;20474;-68
2023/03/31 13:59:59;;;;;;;11.50;3.03;;;;;;;;;;4994263;28;20430;-69
2023/03/31 14:02:45;;;;;;;6.87;2.80;;;;;;;;;;4993834;28;20885;-68
2023/03/31 14:05:29;;;;;;;7.03;2.70;;;;;;;;;;4994428;28;20487;-67
2023/03/31 14:07:57;;;;;;;6.53;2.73;;;;;;;;;;4993678;28;20450;-67
2023/03/31 14:10:25;;;;;;;4.57;2.20;;;;;;;;;;4994003;28;20535;-68
2023/03/31 14:13:04;;;;;;;7.93;3.30;;;;;;;;;;4994600;28;20539;-68
2023/03/31 14:15:31;;;;;;;6.50;2.67;;;;;;;;;;4994285;28;20505;-67
2023/03/31 14:17:59;;;;;;;3.93;2.03;;;;;;;;;;4994476;28;20481;-67
2023/03/31 14:20:29;;;;;;;8.13;2.43;;;;;;;;;;4994717;28;20522;-67
2023/03/31 14:23:00;;;;;;;5.53;2.40;;;;;;;;;;4994935;28;20471;-67
2023/03/31 14:25:37;;;;;;;10.83;2.73;;;;;;;;;;4994488;28;20952;-67
2023/03/31 14:28:15;;;;;;;6.33;2.77;;;;;;;;;;4993719;28;20943;-68
2023/03/31 14:30:46;;;;;;;6.30;3.30;;;;;;;;;;4994074;28;20435;-67
2023/03/31 14:33:20;;;;;;;9.47;2.63;;;;;;;;;;4994544;28;20437;-68
2023/03/31 14:35:53;;;;;;;8.90;3.03;;;;;;;;;;4992614;28;20490;-67
2023/03/31 14:38:22;;;;;;;5.57;2.50;;;;;;;;;;4994170;28;20422;-67
2023/03/31 14:40:52;;;;;;;8.30;2.70;;;;;;;;;;4994174;28;20479;-67
2023/03/31 14:43:22;;;;;;;7.10;2.70;;;;;;;;;;4994743;28;20443;-67
2023/03/31 14:45:57;;;;;;;9.13;2.43;;;;;;;;;;4994099;28;20572;-67
2023/03/31 14:48:24;;;;;;;12.27;2.53;;;;;;;;;;4994203;28;20442;-68
2023/03/31 14:50:57;;;;;;;9.53;3.20;;;;;;;;;;4993406;28;20447;-68
2023/03/31 14:53:25;;;;;;;11.97;2.77;;;;;;;;;;4993576;28;20962;-68
2023/03/31 14:55:54;;;;;;;9.30;2.90;;;;;;;;;;4993886;28;20506;-67
2023/03/31 14:58:25;;;;;;;6.23;2.80;;;;;;;;;;4993685;28;20483;-67
2023/03/31 15:00:52;;;;;;;7.60;2.90;;;;;;;;;;4993996;28;20443;-67